Time Latitude Longitude Accuracy (66% radius in meters) Altitude (meters) Speed (km/hour) Bearing (degrees) Battery (%) GPS flag
07:31:05 57.203770 60.118627 0 0 0 0 1 delete
07:31:04 57.203770 60.118618 0 0 0 0 1 delete
07:31:03 57.203773 60.118608 0 0 0 0 1 delete
07:31:02 57.203775 60.118590 0 0 0 0 1 delete
07:31:01 57.203780 60.118570 0 0 0 0 1 delete
07:31:00 57.203782 60.118557 0 0 0 0 1 delete
07:30:59 57.203792 60.118535 0 0 0 0 1 delete
07:30:58 57.203798 60.118517 0 0 0 0 1 delete
07:30:57 57.203803 60.118500 0 0 0 0 1 delete
07:30:56 57.203812 60.118473 0 0 0 0 1 delete
07:30:55 57.203813 60.118457 0 0 0 0 1 delete
07:30:54 57.203818 60.118442 0 0 0 0 1 delete
07:30:53 57.203822 60.118423 0 0 0 0 1 delete
07:30:52 57.203823 60.118412 0 0 0 0 1 delete
07:30:51 57.203828 60.118402 0 0 0 0 1 delete
07:30:50 57.203833 60.118387 0 0 0 0 1 delete
07:30:49 57.203835 60.118380 0 0 0 0 1 delete
07:30:48 57.203840 60.118373 0 0 0 0 1 delete
07:30:47 57.203840 60.118367 0 0 0 0 1 delete
07:30:46 57.203843 60.118355 0 0 0 0 1 delete
07:30:45 57.203852 60.118340 0 0 0 0 1 delete
07:30:44 57.203858 60.118320 0 0 0 0 1 delete
07:30:43 57.203862 60.118308 0 0 0 0 1 delete
07:30:42 57.203872 60.118293 0 0 0 0 1 delete
07:30:41 57.203875 60.118285 0 0 0 0 1 delete
07:30:40 57.203883 60.118277 0 0 0 0 1 delete
07:30:39 57.203892 60.118260 0 0 0 0 1 delete
07:30:38 57.203895 60.118255 0 0 0 0 1 delete
07:30:37 57.203900 60.118245 0 0 0 0 1 delete
07:30:36 57.203903 60.118240 0 0 0 0 1 delete
07:30:35 57.203907 60.118232 0 0 0 0 1 delete
07:30:34 57.203915 60.118217 0 0 0 0 1 delete
07:30:33 57.203918 60.118210 0 0 0 0 1 delete
07:30:32 57.203922 60.118210 0 0 0 0 1 delete
07:30:31 57.203923 60.118208 0 0 0 0 1 delete
07:30:30 57.203923 60.118207 0 0 0 0 1 delete
07:30:29 57.203925 60.118207 0 0 0 0 1 delete
07:30:28 57.203927 60.118203 0 0 0 0 1 delete
07:30:27 57.203928 60.118198 0 0 0 0 1 delete
07:30:26 57.203933 60.118193 0 0 0 0 1 delete
07:30:25 57.203938 60.118188 0 0 0 0 1 delete
07:30:24 57.203940 60.118182 0 0 0 0 1 delete
07:30:23 57.203942 60.118178 0 0 0 0 1 delete
07:30:22 57.203942 60.118177 0 0 0 0 1 delete
07:30:21 57.203942 60.118173 0 0 0 0 1 delete
07:30:20 57.203943 60.118163 0 0 0 0 1 delete
07:30:19 57.203947 60.118157 0 0 0 0 1 delete
07:30:18 57.203953 60.118143 0 0 0 0 1 delete
07:30:17 57.203965 60.118125 0 0 0 0 1 delete
07:30:16 57.203967 60.118112 0 0 0 0 1 delete